sensor_id;sensor_type;location;lat;lon;timestamp;P1;durP1;ratioP1;P2;durP2;ratioP2
9974;SDS011;5028;50.974;4.968;2023-06-10T00:01:42;6.47;;;4.40;;
9974;SDS011;5028;50.974;4.968;2023-06-10T00:04:14;5.13;;;4.63;;
9974;SDS011;5028;50.974;4.968;2023-06-10T00:06:44;5.00;;;4.17;;
9974;SDS011;5028;50.974;4.968;2023-06-10T00:09:16;4.50;;;4.10;;
9974;SDS011;5028;50.974;4.968;2023-06-10T00:11:45;7.13;;;4.67;;
9974;SDS011;5028;50.974;4.968;2023-06-10T00:14:13;5.20;;;4.70;;
9974;SDS011;5028;50.974;4.968;2023-06-10T00:16:44;5.50;;;4.70;;
9974;SDS011;5028;50.974;4.968;2023-06-10T00:19:13;5.63;;;4.87;;
9974;SDS011;5028;50.974;4.968;2023-06-10T00:21:43;4.97;;;4.53;;
9974;SDS011;5028;50.974;4.968;2023-06-10T00:24:12;6.37;;;4.67;;
9974;SDS011;5028;50.974;4.968;2023-06-10T00:26:41;7.23;;;5.20;;
9974;SDS011;5028;50.974;4.968;2023-06-10T00:29:10;5.13;;;4.50;;
9974;SDS011;5028;50.974;4.968;2023-06-10T00:31:40;5.43;;;4.63;;
9974;SDS011;5028;50.974;4.968;2023-06-10T00:34:09;5.27;;;4.40;;
9974;SDS011;5028;50.974;4.968;2023-06-10T00:36:38;4.97;;;4.57;;
9974;SDS011;5028;50.974;4.968;2023-06-10T00:39:08;5.93;;;4.70;;
9974;SDS011;5028;50.974;4.968;2023-06-10T00:41:37;7.23;;;4.63;;
9974;SDS011;5028;50.974;4.968;2023-06-10T00:44:06;5.20;;;4.80;;
9974;SDS011;5028;50.974;4.968;2023-06-10T00:46:34;5.23;;;4.63;;
9974;SDS011;5028;50.974;4.968;2023-06-10T00:49:04;6.00;;;4.60;;
9974;SDS011;5028;50.974;4.968;2023-06-10T00:51:33;6.03;;;5.13;;
9974;SDS011;5028;50.974;4.968;2023-06-10T00:54:02;6.70;;;4.90;;
9974;SDS011;5028;50.974;4.968;2023-06-10T00:56:34;6.13;;;4.60;;
9974;SDS011;5028;50.974;4.968;2023-06-10T00:59:04;5.60;;;5.03;;
9974;SDS011;5028;50.974;4.968;2023-06-10T01:01:33;5.67;;;5.10;;
9974;SDS011;5028;50.974;4.968;2023-06-10T01:04:04;5.67;;;5.00;;
9974;SDS011;5028;50.974;4.968;2023-06-10T01:06:34;5.67;;;5.13;;
9974;SDS011;5028;50.974;4.968;2023-06-10T01:09:17;5.97;;;4.97;;
9974;SDS011;5028;50.974;4.968;2023-06-10T01:11:54;6.27;;;5.07;;
9974;SDS011;5028;50.974;4.968;2023-06-10T01:14:29;7.13;;;5.37;;
9974;SDS011;5028;50.974;4.968;2023-06-10T01:16:59;5.63;;;4.93;;
9974;SDS011;5028;50.974;4.968;2023-06-10T01:19:31;6.80;;;5.30;;
9974;SDS011;5028;50.974;4.968;2023-06-10T01:22:02;6.57;;;5.43;;
9974;SDS011;5028;50.974;4.968;2023-06-10T01:24:32;16.70;;;6.00;;
9974;SDS011;5028;50.974;4.968;2023-06-10T01:27:01;6.40;;;5.80;;
9974;SDS011;5028;50.974;4.968;2023-06-10T01:29:54;6.53;;;5.47;;
9974;SDS011;5028;50.974;4.968;2023-06-10T01:32:29;5.93;;;5.33;;
9974;SDS011;5028;50.974;4.968;2023-06-10T01:35:03;5.77;;;5.27;;
9974;SDS011;5028;50.974;4.968;2023-06-10T01:37:36;6.30;;;5.73;;
9974;SDS011;5028;50.974;4.968;2023-06-10T01:40:07;6.10;;;5.50;;
9974;SDS011;5028;50.974;4.968;2023-06-10T01:42:37;7.13;;;6.43;;
9974;SDS011;5028;50.974;4.968;2023-06-10T01:45:06;7.80;;;5.90;;
9974;SDS011;5028;50.974;4.968;2023-06-10T01:47:35;7.07;;;6.10;;
9974;SDS011;5028;50.974;4.968;2023-06-10T01:50:05;6.47;;;5.87;;
9974;SDS011;5028;50.974;4.968;2023-06-10T01:52:35;7.77;;;5.57;;
9974;SDS011;5028;50.974;4.968;2023-06-10T01:55:05;7.63;;;5.47;;
9974;SDS011;5028;50.974;4.968;2023-06-10T01:57:35;5.43;;;4.93;;
9974;SDS011;5028;50.974;4.968;2023-06-10T02:00:05;9.37;;;6.00;;
9974;SDS011;5028;50.974;4.968;2023-06-10T02:02:35;6.30;;;5.60;;
9974;SDS011;5028;50.974;4.968;2023-06-10T02:05:05;5.97;;;5.37;;
9974;SDS011;5028;50.974;4.968;2023-06-10T02:07:36;5.83;;;5.23;;
9974;SDS011;5028;50.974;4.968;2023-06-10T02:10:06;6.00;;;5.50;;
9974;SDS011;5028;50.974;4.968;2023-06-10T02:12:36;6.57;;;5.20;;
9974;SDS011;5028;50.974;4.968;2023-06-10T02:15:05;6.03;;;5.53;;
9974;SDS011;5028;50.974;4.968;2023-06-10T02:17:34;6.83;;;5.87;;
9974;SDS011;5028;50.974;4.968;2023-06-10T02:20:04;7.33;;;6.33;;
9974;SDS011;5028;50.974;4.968;2023-06-10T02:22:38;8.43;;;6.20;;
9974;SDS011;5028;50.974;4.968;2023-06-10T02:25:07;6.40;;;5.80;;
9974;SDS011;5028;50.974;4.968;2023-06-10T02:27:38;7.03;;;5.83;;
9974;SDS011;5028;50.974;4.968;2023-06-10T02:30:07;6.10;;;5.50;;
9974;SDS011;5028;50.974;4.968;2023-06-10T02:32:37;9.63;;;5.80;;
9974;SDS011;5028;50.974;4.968;2023-06-10T02:35:06;6.93;;;6.20;;
9974;SDS011;5028;50.974;4.968;2023-06-10T02:37:40;7.33;;;5.77;;
9974;SDS011;5028;50.974;4.968;2023-06-10T02:40:09;6.87;;;5.47;;
9974;SDS011;5028;50.974;4.968;2023-06-10T02:42:40;6.40;;;5.80;;
9974;SDS011;5028;50.974;4.968;2023-06-10T02:45:09;6.40;;;5.80;;
9974;SDS011;5028;50.974;4.968;2023-06-10T02:47:38;6.20;;;5.60;;
9974;SDS011;5028;50.974;4.968;2023-06-10T02:50:08;6.60;;;6.00;;
9974;SDS011;5028;50.974;4.968;2023-06-10T02:52:37;6.70;;;5.87;;
9974;SDS011;5028;50.974;4.968;2023-06-10T02:55:08;7.40;;;6.07;;
9974;SDS011;5028;50.974;4.968;2023-06-10T02:57:37;7.53;;;5.97;;
9974;SDS011;5028;50.974;4.968;2023-06-10T03:00:06;7.10;;;6.17;;
9974;SDS011;5028;50.974;4.968;2023-06-10T03:02:37;6.80;;;6.10;;
9974;SDS011;5028;50.974;4.968;2023-06-10T03:05:06;6.77;;;5.67;;
9974;SDS011;5028;50.974;4.968;2023-06-10T03:07:37;8.13;;;6.20;;
9974;SDS011;5028;50.974;4.968;2023-06-10T03:10:09;6.80;;;6.07;;
9974;SDS011;5028;50.974;4.968;2023-06-10T03:12:37;6.60;;;5.90;;
9974;SDS011;5028;50.974;4.968;2023-06-10T03:15:06;6.90;;;5.90;;
9974;SDS011;5028;50.974;4.968;2023-06-10T03:17:37;7.43;;;6.00;;
9974;SDS011;5028;50.974;4.968;2023-06-10T03:20:07;9.30;;;6.20;;
9974;SDS011;5028;50.974;4.968;2023-06-10T03:22:36;7.73;;;5.83;;
9974;SDS011;5028;50.974;4.968;2023-06-10T03:25:08;6.00;;;5.50;;
9974;SDS011;5028;50.974;4.968;2023-06-10T03:27:41;6.30;;;5.70;;
9974;SDS011;5028;50.974;4.968;2023-06-10T03:30:11;6.80;;;6.20;;
9974;SDS011;5028;50.974;4.968;2023-06-10T03:32:41;8.03;;;5.90;;
9974;SDS011;5028;50.974;4.968;2023-06-10T03:35:10;9.53;;;6.13;;
9974;SDS011;5028;50.974;4.968;2023-06-10T03:37:38;6.60;;;6.00;;
9974;SDS011;5028;50.974;4.968;2023-06-10T03:40:09;7.00;;;6.30;;
9974;SDS011;5028;50.974;4.968;2023-06-10T03:42:38;6.70;;;6.03;;
9974;SDS011;5028;50.974;4.968;2023-06-10T03:45:08;7.47;;;6.60;;
9974;SDS011;5028;50.974;4.968;2023-06-10T03:47:38;6.30;;;5.70;;
9974;SDS011;5028;50.974;4.968;2023-06-10T03:50:07;7.30;;;6.33;;
9974;SDS011;5028;50.974;4.968;2023-06-10T03:52:39;6.97;;;6.27;;
9974;SDS011;5028;50.974;4.968;2023-06-10T03:55:09;6.93;;;6.23;;
9974;SDS011;5028;50.974;4.968;2023-06-10T03:57:40;6.57;;;5.93;;
9974;SDS011;5028;50.974;4.968;2023-06-10T04:00:09;7.30;;;6.60;;
9974;SDS011;5028;50.974;4.968;2023-06-10T04:02:39;7.13;;;6.43;;
9974;SDS011;5028;50.974;4.968;2023-06-10T04:05:13;6.27;;;5.67;;
9974;SDS011;5028;50.974;4.968;2023-06-10T04:07:42;8.20;;;6.57;;
9974;SDS011;5028;50.974;4.968;2023-06-10T04:10:14;7.73;;;6.57;;
9974;SDS011;5028;50.974;4.968;2023-06-10T04:12:43;7.40;;;6.57;;
9974;SDS011;5028;50.974;4.968;2023-06-10T04:15:12;7.00;;;6.40;;
9974;SDS011;5028;50.974;4.968;2023-06-10T04:17:41;8.00;;;6.10;;
9974;SDS011;5028;50.974;4.968;2023-06-10T04:20:10;6.90;;;5.87;;
9974;SDS011;5028;50.974;4.968;2023-06-10T04:22:39;6.87;;;6.17;;
9974;SDS011;5028;50.974;4.968;2023-06-10T04:25:08;7.13;;;6.10;;
9974;SDS011;5028;50.974;4.968;2023-06-10T04:27:39;6.60;;;5.97;;
9974;SDS011;5028;50.974;4.968;2023-06-10T04:30:08;6.70;;;6.10;;
9974;SDS011;5028;50.974;4.968;2023-06-10T04:32:37;11.93;;;6.50;;
9974;SDS011;5028;50.974;4.968;2023-06-10T04:35:07;6.60;;;6.00;;
9974;SDS011;5028;50.974;4.968;2023-06-10T04:37:39;6.97;;;5.97;;
9974;SDS011;5028;50.974;4.968;2023-06-10T04:40:09;6.63;;;6.03;;
9974;SDS011;5028;50.974;4.968;2023-06-10T04:42:40;7.10;;;6.37;;
9974;SDS011;5028;50.974;4.968;2023-06-10T04:45:09;7.47;;;6.27;;
9974;SDS011;5028;50.974;4.968;2023-06-10T04:47:38;7.03;;;6.33;;
9974;SDS011;5028;50.974;4.968;2023-06-10T04:50:07;6.90;;;6.10;;
9974;SDS011;5028;50.974;4.968;2023-06-10T04:52:36;6.73;;;6.13;;
9974;SDS011;5028;50.974;4.968;2023-06-10T04:55:07;6.90;;;6.20;;
9974;SDS011;5028;50.974;4.968;2023-06-10T04:57:37;8.60;;;6.10;;
9974;SDS011;5028;50.974;4.968;2023-06-10T05:00:08;6.57;;;5.97;;
9974;SDS011;5028;50.974;4.968;2023-06-10T05:02:38;6.23;;;5.73;;
9974;SDS011;5028;50.974;4.968;2023-06-10T05:05:08;6.37;;;5.80;;
9974;SDS011;5028;50.974;4.968;2023-06-10T05:07:37;6.60;;;5.90;;
9974;SDS011;5028;50.974;4.968;2023-06-10T05:10:06;7.40;;;6.00;;
9974;SDS011;5028;50.974;4.968;2023-06-10T05:12:36;8.33;;;5.67;;
9974;SDS011;5028;50.974;4.968;2023-06-10T05:15:07;6.50;;;5.87;;
9974;SDS011;5028;50.974;4.968;2023-06-10T05:17:37;6.73;;;5.73;;
9974;SDS011;5028;50.974;4.968;2023-06-10T05:20:06;7.73;;;6.10;;
9974;SDS011;5028;50.974;4.968;2023-06-10T05:22:36;6.53;;;5.27;;
9974;SDS011;5028;50.974;4.968;2023-06-10T05:25:04;7.10;;;5.53;;
9974;SDS011;5028;50.974;4.968;2023-06-10T05:27:35;6.63;;;6.00;;
9974;SDS011;5028;50.974;4.968;2023-06-10T05:30:05;7.13;;;5.93;;
9974;SDS011;5028;50.974;4.968;2023-06-10T05:32:38;6.90;;;5.67;;
9974;SDS011;5028;50.974;4.968;2023-06-10T05:35:06;6.97;;;5.70;;
9974;SDS011;5028;50.974;4.968;2023-06-10T05:37:35;7.77;;;5.73;;
9974;SDS011;5028;50.974;4.968;2023-06-10T05:40:05;6.70;;;5.70;;
9974;SDS011;5028;50.974;4.968;2023-06-10T05:42:35;5.83;;;5.30;;
9974;SDS011;5028;50.974;4.968;2023-06-10T05:45:05;6.60;;;5.80;;
9974;SDS011;5028;50.974;4.968;2023-06-10T05:47:36;6.70;;;5.67;;
9974;SDS011;5028;50.974;4.968;2023-06-10T05:50:05;5.87;;;5.37;;
9974;SDS011;5028;50.974;4.968;2023-06-10T05:52:35;6.17;;;5.23;;
9974;SDS011;5028;50.974;4.968;2023-06-10T05:55:07;7.80;;;5.50;;
9974;SDS011;5028;50.974;4.968;2023-06-10T05:57:36;7.47;;;5.40;;
9974;SDS011;5028;50.974;4.968;2023-06-10T06:00:07;9.47;;;5.90;;
9974;SDS011;5028;50.974;4.968;2023-06-10T06:02:36;6.87;;;5.27;;
9974;SDS011;5028;50.974;4.968;2023-06-10T06:05:05;5.70;;;5.10;;
9974;SDS011;5028;50.974;4.968;2023-06-10T06:07:36;6.33;;;5.73;;
9974;SDS011;5028;50.974;4.968;2023-06-10T06:10:04;7.40;;;5.30;;
9974;SDS011;5028;50.974;4.968;2023-06-10T06:12:34;5.10;;;4.70;;
9974;SDS011;5028;50.974;4.968;2023-06-10T06:15:03;8.30;;;5.40;;
9974;SDS011;5028;50.974;4.968;2023-06-10T06:17:36;6.00;;;5.07;;
9974;SDS011;5028;50.974;4.968;2023-06-10T06:20:06;5.87;;;4.83;;
9974;SDS011;5028;50.974;4.968;2023-06-10T06:22:36;6.47;;;4.93;;
9974;SDS011;5028;50.974;4.968;2023-06-10T06:25:05;9.10;;;5.17;;
9974;SDS011;5028;50.974;4.968;2023-06-10T06:27:34;5.40;;;4.90;;
9974;SDS011;5028;50.974;4.968;2023-06-10T06:30:03;6.03;;;5.23;;
9974;SDS011;5028;50.974;4.968;2023-06-10T06:32:33;8.53;;;4.70;;
9974;SDS011;5028;50.974;4.968;2023-06-10T06:35:04;5.13;;;4.57;;
9974;SDS011;5028;50.974;4.968;2023-06-10T06:37:35;6.27;;;4.60;;
9974;SDS011;5028;50.974;4.968;2023-06-10T06:40:04;6.03;;;4.67;;
9974;SDS011;5028;50.974;4.968;2023-06-10T06:42:33;7.27;;;4.60;;
9974;SDS011;5028;50.974;4.968;2023-06-10T06:45:02;5.97;;;4.60;;
9974;SDS011;5028;50.974;4.968;2023-06-10T06:47:33;5.33;;;4.93;;
9974;SDS011;5028;50.974;4.968;2023-06-10T06:50:04;11.10;;;4.60;;
9974;SDS011;5028;50.974;4.968;2023-06-10T06:52:33;5.57;;;4.97;;
9974;SDS011;5028;50.974;4.968;2023-06-10T06:55:02;5.53;;;4.90;;
9974;SDS011;5028;50.974;4.968;2023-06-10T06:57:30;6.17;;;4.40;;
9974;SDS011;5028;50.974;4.968;2023-06-10T06:59:59;6.07;;;4.57;;
9974;SDS011;5028;50.974;4.968;2023-06-10T07:02:28;6.17;;;4.60;;
9974;SDS011;5028;50.974;4.968;2023-06-10T07:04:59;5.23;;;4.50;;
9974;SDS011;5028;50.974;4.968;2023-06-10T07:07:30;5.70;;;4.30;;
9974;SDS011;5028;50.974;4.968;2023-06-10T07:09:58;7.93;;;5.00;;
9974;SDS011;5028;50.974;4.968;2023-06-10T07:12:27;6.03;;;4.90;;
9974;SDS011;5028;50.974;4.968;2023-06-10T07:14:56;5.70;;;4.43;;
9974;SDS011;5028;50.974;4.968;2023-06-10T07:17:25;5.13;;;4.60;;
9974;SDS011;5028;50.974;4.968;2023-06-10T07:19:54;6.07;;;4.67;;
9974;SDS011;5028;50.974;4.968;2023-06-10T07:22:26;6.83;;;4.33;;
9974;SDS011;5028;50.974;4.968;2023-06-10T07:24:57;20.07;;;5.03;;
9974;SDS011;5028;50.974;4.968;2023-06-10T07:27:25;5.97;;;4.87;;
9974;SDS011;5028;50.974;4.968;2023-06-10T07:29:54;7.33;;;4.93;;
9974;SDS011;5028;50.974;4.968;2023-06-10T07:32:24;8.60;;;4.97;;
9974;SDS011;5028;50.974;4.968;2023-06-10T07:34:52;5.10;;;4.60;;
9974;SDS011;5028;50.974;4.968;2023-06-10T07:37:21;5.23;;;4.40;;
9974;SDS011;5028;50.974;4.968;2023-06-10T07:39:50;4.80;;;4.30;;
9974;SDS011;5028;50.974;4.968;2023-06-10T07:42:21;5.40;;;4.90;;
9974;SDS011;5028;50.974;4.968;2023-06-10T07:44:50;5.30;;;4.50;;
9974;SDS011;5028;50.974;4.968;2023-06-10T07:47:19;4.90;;;4.10;;
9974;SDS011;5028;50.974;4.968;2023-06-10T07:49:48;6.10;;;4.63;;
9974;SDS011;5028;50.974;4.968;2023-06-10T07:52:16;6.70;;;4.70;;
9974;SDS011;5028;50.974;4.968;2023-06-10T07:54:45;5.10;;;4.60;;
9974;SDS011;5028;50.974;4.968;2023-06-10T07:57:15;8.00;;;4.35;;
9974;SDS011;5028;50.974;4.968;2023-06-10T07:59:45;7.60;;;4.55;;
9974;SDS011;5028;50.974;4.968;2023-06-10T08:02:14;6.60;;;4.65;;
9974;SDS011;5028;50.974;4.968;2023-06-10T08:04:42;6.22;;;4.63;;
9974;SDS011;5028;50.974;4.968;2023-06-10T08:07:11;4.90;;;4.50;;
9974;SDS011;5028;50.974;4.968;2023-06-10T08:09:40;4.72;;;4.15;;
9974;SDS011;5028;50.974;4.968;2023-06-10T08:12:08;6.78;;;4.47;;
9974;SDS011;5028;50.974;4.968;2023-06-10T08:14:37;7.70;;;4.57;;
9974;SDS011;5028;50.974;4.968;2023-06-10T08:17:08;4.93;;;4.00;;
9974;SDS011;5028;50.974;4.968;2023-06-10T08:19:37;6.78;;;4.53;;
9974;SDS011;5028;50.974;4.968;2023-06-10T08:22:06;6.43;;;4.55;;
9974;SDS011;5028;50.974;4.968;2023-06-10T08:24:35;5.88;;;4.50;;
9974;SDS011;5028;50.974;4.968;2023-06-10T08:27:11;8.93;;;4.50;;
9974;SDS011;5028;50.974;4.968;2023-06-10T08:29:40;5.13;;;4.50;;
9974;SDS011;5028;50.974;4.968;2023-06-10T08:32:11;5.30;;;4.22;;
9974;SDS011;5028;50.974;4.968;2023-06-10T08:34:40;7.13;;;4.60;;
9974;SDS011;5028;50.974;4.968;2023-06-10T08:37:08;5.38;;;4.10;;
9974;SDS011;5028;50.974;4.968;2023-06-10T08:39:37;5.68;;;3.97;;
9974;SDS011;5028;50.974;4.968;2023-06-10T08:42:09;4.90;;;4.13;;
9974;SDS011;5028;50.974;4.968;2023-06-10T08:44:40;4.70;;;4.03;;
9974;SDS011;5028;50.974;4.968;2023-06-10T08:47:13;5.85;;;3.72;;
9974;SDS011;5028;50.974;4.968;2023-06-10T08:49:46;6.70;;;4.18;;
9974;SDS011;5028;50.974;4.968;2023-06-10T08:52:17;9.48;;;3.83;;
9974;SDS011;5028;50.974;4.968;2023-06-10T08:54:48;5.70;;;4.10;;
9974;SDS011;5028;50.974;4.968;2023-06-10T08:57:20;4.40;;;3.92;;
9974;SDS011;5028;50.974;4.968;2023-06-10T08:59:49;5.68;;;4.13;;
9974;SDS011;5028;50.974;4.968;2023-06-10T09:02:19;7.30;;;4.30;;
9974;SDS011;5028;50.974;4.968;2023-06-10T09:04:48;5.20;;;4.28;;
9974;SDS011;5028;50.974;4.968;2023-06-10T09:07:18;6.55;;;4.13;;
9974;SDS011;5028;50.974;4.968;2023-06-10T09:09:48;7.07;;;3.92;;
9974;SDS011;5028;50.974;4.968;2023-06-10T09:12:20;6.32;;;4.30;;
9974;SDS011;5028;50.974;4.968;2023-06-10T09:14:49;6.78;;;3.70;;
9974;SDS011;5028;50.974;4.968;2023-06-10T09:17:20;4.93;;;3.65;;
9974;SDS011;5028;50.974;4.968;2023-06-10T09:19:49;6.47;;;4.13;;
9974;SDS011;5028;50.974;4.968;2023-06-10T09:22:21;13.52;;;4.13;;
9974;SDS011;5028;50.974;4.968;2023-06-10T09:24:50;4.78;;;4.32;;
9974;SDS011;5028;50.974;4.968;2023-06-10T09:27:20;4.40;;;3.97;;
9974;SDS011;5028;50.974;4.968;2023-06-10T09:29:51;4.22;;;3.45;;
9974;SDS011;5028;50.974;4.968;2023-06-10T09:32:22;4.10;;;3.80;;
9974;SDS011;5028;50.974;4.968;2023-06-10T09:34:53;7.15;;;4.25;;
9974;SDS011;5028;50.974;4.968;2023-06-10T09:37:22;4.80;;;4.10;;
9974;SDS011;5028;50.974;4.968;2023-06-10T09:40:01;6.72;;;3.92;;
9974;SDS011;5028;50.974;4.968;2023-06-10T09:42:32;5.50;;;4.00;;
9974;SDS011;5028;50.974;4.968;2023-06-10T09:45:02;4.00;;;3.58;;
9974;SDS011;5028;50.974;4.968;2023-06-10T09:47:33;3.97;;;3.58;;
9974;SDS011;5028;50.974;4.968;2023-06-10T09:50:02;4.68;;;3.78;;
9974;SDS011;5028;50.974;4.968;2023-06-10T09:52:36;4.70;;;3.40;;
9974;SDS011;5028;50.974;4.968;2023-06-10T09:55:07;4.03;;;3.55;;
9974;SDS011;5028;50.974;4.968;2023-06-10T09:57:38;4.07;;;3.67;;
9974;SDS011;5028;50.974;4.968;2023-06-10T10:00:08;4.68;;;3.72;;
9974;SDS011;5028;50.974;4.968;2023-06-10T10:02:45;4.15;;;3.70;;
9974;SDS011;5028;50.974;4.968;2023-06-10T10:05:16;4.22;;;3.83;;
9974;SDS011;5028;50.974;4.968;2023-06-10T10:07:46;4.70;;;3.58;;
9974;SDS011;5028;50.974;4.968;2023-06-10T10:10:16;5.18;;;3.58;;
9974;SDS011;5028;50.974;4.968;2023-06-10T10:12:48;4.88;;;3.50;;
9974;SDS011;5028;50.974;4.968;2023-06-10T10:15:23;5.55;;;3.72;;
9974;SDS011;5028;50.974;4.968;2023-06-10T10:18:00;4.30;;;3.90;;
9974;SDS011;5028;50.974;4.968;2023-06-10T10:20:37;6.25;;;3.88;;
9974;SDS011;5028;50.974;4.968;2023-06-10T10:23:12;7.32;;;3.85;;
9974;SDS011;5028;50.974;4.968;2023-06-10T10:25:44;6.03;;;3.60;;
9974;SDS011;5028;50.974;4.968;2023-06-10T10:28:19;7.90;;;3.95;;
9974;SDS011;5028;50.974;4.968;2023-06-10T10:30:51;4.45;;;3.28;;
9974;SDS011;5028;50.974;4.968;2023-06-10T10:33:25;5.47;;;3.60;;
9974;SDS011;5028;50.974;4.968;2023-06-10T10:36:01;4.00;;;3.50;;
9974;SDS011;5028;50.974;4.968;2023-06-10T10:38:31;5.40;;;3.50;;
9974;SDS011;5028;50.974;4.968;2023-06-10T10:41:00;5.57;;;3.30;;
9974;SDS011;5028;50.974;4.968;2023-06-10T10:43:29;5.55;;;3.90;;
9974;SDS011;5028;50.974;4.968;2023-06-10T10:45:59;6.13;;;3.70;;
9974;SDS011;5028;50.974;4.968;2023-06-10T10:48:35;4.47;;;3.55;;
9974;SDS011;5028;50.974;4.968;2023-06-10T10:51:07;5.65;;;3.47;;
9974;SDS011;5028;50.974;4.968;2023-06-10T10:53:36;4.72;;;3.72;;
9974;SDS011;5028;50.974;4.968;2023-06-10T10:56:07;3.60;;;3.30;;
9974;SDS011;5028;50.974;4.968;2023-06-10T10:58:40;5.80;;;3.38;;
9974;SDS011;5028;50.974;4.968;2023-06-10T11:01:12;6.07;;;3.53;;
9974;SDS011;5028;50.974;4.968;2023-06-10T11:03:43;5.05;;;3.58;;
9974;SDS011;5028;50.974;4.968;2023-06-10T11:06:14;6.88;;;3.65;;
9974;SDS011;5028;50.974;4.968;2023-06-10T11:08:46;4.90;;;3.60;;
9974;SDS011;5028;50.974;4.968;2023-06-10T11:11:20;3.88;;;3.45;;
9974;SDS011;5028;50.974;4.968;2023-06-10T11:13:58;3.92;;;3.17;;
9974;SDS011;5028;50.974;4.968;2023-06-10T11:16:39;5.13;;;3.50;;
9974;SDS011;5028;50.974;4.968;2023-06-10T11:19:11;5.75;;;3.15;;
9974;SDS011;5028;50.974;4.968;2023-06-10T11:22:02;8.98;;;3.30;;
9974;SDS011;5028;50.974;4.968;2023-06-10T11:24:36;4.28;;;3.10;;
9974;SDS011;5028;50.974;4.968;2023-06-10T11:27:16;3.60;;;3.20;;
9974;SDS011;5028;50.974;4.968;2023-06-10T11:29:57;5.55;;;3.40;;
9974;SDS011;5028;50.974;4.968;2023-06-10T11:32:45;3.65;;;3.17;;
9974;SDS011;5028;50.974;4.968;2023-06-10T11:35:22;6.45;;;3.03;;
9974;SDS011;5028;50.974;4.968;2023-06-10T11:37:53;6.65;;;3.42;;
9974;SDS011;5028;50.974;4.968;2023-06-10T11:40:22;5.22;;;3.13;;
9974;SDS011;5028;50.974;4.968;2023-06-10T11:42:51;3.40;;;3.10;;
9974;SDS011;5028;50.974;4.968;2023-06-10T11:45:20;5.82;;;3.30;;
9974;SDS011;5028;50.974;4.968;2023-06-10T11:47:56;4.13;;;3.30;;
9974;SDS011;5028;50.974;4.968;2023-06-10T11:50:30;10.88;;;3.72;;
9974;SDS011;5028;50.974;4.968;2023-06-10T11:53:00;7.63;;;3.22;;
9974;SDS011;5028;50.974;4.968;2023-06-10T11:55:40;5.80;;;3.17;;
9974;SDS011;5028;50.974;4.968;2023-06-10T11:58:13;3.30;;;3.00;;
9974;SDS011;5028;50.974;4.968;2023-06-10T12:00:46;3.75;;;3.40;;
9974;SDS011;5028;50.974;4.968;2023-06-10T12:03:15;4.93;;;3.38;;
9974;SDS011;5028;50.974;4.968;2023-06-10T12:05:56;5.90;;;3.40;;
9974;SDS011;5028;50.974;4.968;2023-06-10T12:08:26;8.10;;;3.15;;
9974;SDS011;5028;50.974;4.968;2023-06-10T12:10:55;3.90;;;3.15;;
9974;SDS011;5028;50.974;4.968;2023-06-10T12:13:26;4.30;;;3.10;;
9974;SDS011;5028;50.974;4.968;2023-06-10T12:16:05;3.95;;;3.20;;
9974;SDS011;5028;50.974;4.968;2023-06-10T12:18:35;3.47;;;3.10;;
9974;SDS011;5028;50.974;4.968;2023-06-10T12:21:16;7.50;;;3.42;;
9974;SDS011;5028;50.974;4.968;2023-06-10T12:24:02;5.07;;;3.38;;
9974;SDS011;5028;50.974;4.968;2023-06-10T12:26:39;4.20;;;3.38;;
9974;SDS011;5028;50.974;4.968;2023-06-10T12:31:57;3.83;;;2.97;;
9974;SDS011;5028;50.974;4.968;2023-06-10T12:34:28;4.22;;;3.22;;
9974;SDS011;5028;50.974;4.968;2023-06-10T12:36:59;3.55;;;3.20;;
9974;SDS011;5028;50.974;4.968;2023-06-10T12:39:29;7.15;;;3.10;;
9974;SDS011;5028;50.974;4.968;2023-06-10T12:41:58;5.18;;;3.72;;
9974;SDS011;5028;50.974;4.968;2023-06-10T12:44:28;5.05;;;3.30;;
9974;SDS011;5028;50.974;4.968;2023-06-10T12:46:57;4.32;;;3.33;;
9974;SDS011;5028;50.974;4.968;2023-06-10T12:49:26;3.90;;;3.50;;
9974;SDS011;5028;50.974;4.968;2023-06-10T12:51:55;6.75;;;3.45;;
9974;SDS011;5028;50.974;4.968;2023-06-10T12:54:25;3.60;;;3.30;;
9974;SDS011;5028;50.974;4.968;2023-06-10T12:56:54;5.00;;;3.38;;
9974;SDS011;5028;50.974;4.968;2023-06-10T12:59:23;4.90;;;3.10;;
9974;SDS011;5028;50.974;4.968;2023-06-10T13:01:52;5.57;;;3.10;;
9974;SDS011;5028;50.974;4.968;2023-06-10T13:04:22;4.25;;;3.28;;
9974;SDS011;5028;50.974;4.968;2023-06-10T13:06:52;3.75;;;3.17;;
9974;SDS011;5028;50.974;4.968;2023-06-10T13:09:21;3.58;;;3.28;;
9974;SDS011;5028;50.974;4.968;2023-06-10T13:11:52;4.25;;;3.08;;
9974;SDS011;5028;50.974;4.968;2023-06-10T13:14:20;3.00;;;2.70;;
9974;SDS011;5028;50.974;4.968;2023-06-10T13:16:49;4.95;;;3.30;;
9974;SDS011;5028;50.974;4.968;2023-06-10T13:19:18;3.85;;;3.10;;
9974;SDS011;5028;50.974;4.968;2023-06-10T13:21:48;9.65;;;3.35;;
9974;SDS011;5028;50.974;4.968;2023-06-10T13:24:17;5.78;;;3.28;;
9974;SDS011;5028;50.974;4.968;2023-06-10T13:26:46;7.03;;;3.20;;
9974;SDS011;5028;50.974;4.968;2023-06-10T13:29:17;6.78;;;3.47;;
9974;SDS011;5028;50.974;4.968;2023-06-10T13:31:46;3.75;;;3.35;;
9974;SDS011;5028;50.974;4.968;2023-06-10T13:34:14;4.13;;;3.00;;
9974;SDS011;5028;50.974;4.968;2023-06-10T13:36:45;5.03;;;3.00;;
9974;SDS011;5028;50.974;4.968;2023-06-10T13:39:14;5.05;;;3.53;;
9974;SDS011;5028;50.974;4.968;2023-06-10T13:41:42;3.92;;;3.17;;
9974;SDS011;5028;50.974;4.968;2023-06-10T13:44:11;4.40;;;3.10;;
9974;SDS011;5028;50.974;4.968;2023-06-10T13:46:42;3.42;;;2.80;;
9974;SDS011;5028;50.974;4.968;2023-06-10T13:49:15;3.30;;;3.00;;
9974;SDS011;5028;50.974;4.968;2023-06-10T13:51:45;3.78;;;2.75;;
9974;SDS011;5028;50.974;4.968;2023-06-10T13:54:13;5.00;;;2.88;;
9974;SDS011;5028;50.974;4.968;2023-06-10T13:56:42;4.45;;;2.90;;
9974;SDS011;5028;50.974;4.968;2023-06-10T13:59:11;4.63;;;3.20;;
9974;SDS011;5028;50.974;4.968;2023-06-10T14:01:39;6.00;;;3.20;;
9974;SDS011;5028;50.974;4.968;2023-06-10T14:04:10;7.95;;;3.22;;
9974;SDS011;5028;50.974;4.968;2023-06-10T14:06:39;4.72;;;3.65;;
9974;SDS011;5028;50.974;4.968;2023-06-10T14:09:07;4.07;;;3.00;;
9974;SDS011;5028;50.974;4.968;2023-06-10T14:11:36;4.38;;;3.20;;
9974;SDS011;5028;50.974;4.968;2023-06-10T14:14:05;3.70;;;2.95;;
9974;SDS011;5028;50.974;4.968;2023-06-10T14:16:34;4.00;;;3.10;;
9974;SDS011;5028;50.974;4.968;2023-06-10T14:19:08;4.10;;;2.90;;
9974;SDS011;5028;50.974;4.968;2023-06-10T14:21:36;3.50;;;2.85;;
9974;SDS011;5028;50.974;4.968;2023-06-10T14:24:05;3.30;;;3.00;;
9974;SDS011;5028;50.974;4.968;2023-06-10T14:26:36;2.83;;;2.63;;
9974;SDS011;5028;50.974;4.968;2023-06-10T14:29:05;6.00;;;3.22;;
9974;SDS011;5028;50.974;4.968;2023-06-10T14:31:35;4.35;;;2.85;;
9974;SDS011;5028;50.974;4.968;2023-06-10T14:34:03;6.63;;;3.03;;
9974;SDS011;5028;50.974;4.968;2023-06-10T14:36:37;5.07;;;2.80;;
9974;SDS011;5028;50.974;4.968;2023-06-10T14:39:06;4.45;;;2.60;;
9974;SDS011;5028;50.974;4.968;2023-06-10T14:41:34;4.13;;;2.80;;
9974;SDS011;5028;50.974;4.968;2023-06-10T14:44:03;3.83;;;3.00;;
9974;SDS011;5028;50.974;4.968;2023-06-10T14:46:32;4.43;;;3.05;;
9974;SDS011;5028;50.974;4.968;2023-06-10T14:49:01;3.00;;;2.75;;
9974;SDS011;5028;50.974;4.968;2023-06-10T14:51:30;3.33;;;2.97;;
9974;SDS011;5028;50.974;4.968;2023-06-10T14:54:03;5.55;;;3.00;;
9974;SDS011;5028;50.974;4.968;2023-06-10T14:56:32;4.70;;;3.08;;
9974;SDS011;5028;50.974;4.968;2023-06-10T14:59:01;3.28;;;2.95;;
9974;SDS011;5028;50.974;4.968;2023-06-10T15:01:30;5.97;;;3.15;;
9974;SDS011;5028;50.974;4.968;2023-06-10T15:03:58;7.22;;;3.85;;
9974;SDS011;5028;50.974;4.968;2023-06-10T15:06:27;6.25;;;3.63;;
9974;SDS011;5028;50.974;4.968;2023-06-10T15:08:56;9.68;;;3.38;;
9974;SDS011;5028;50.974;4.968;2023-06-10T15:11:27;4.07;;;3.15;;
9974;SDS011;5028;50.974;4.968;2023-06-10T15:13:55;5.38;;;3.10;;
9974;SDS011;5028;50.974;4.968;2023-06-10T15:16:24;4.93;;;3.10;;
9974;SDS011;5028;50.974;4.968;2023-06-10T15:18:53;4.40;;;3.55;;
9974;SDS011;5028;50.974;4.968;2023-06-10T15:21:22;5.25;;;3.20;;
9974;SDS011;5028;50.974;4.968;2023-06-10T15:23:50;3.95;;;3.00;;
9974;SDS011;5028;50.974;4.968;2023-06-10T15:26:19;4.82;;;3.20;;
9974;SDS011;5028;50.974;4.968;2023-06-10T15:28:49;3.55;;;2.70;;
9974;SDS011;5028;50.974;4.968;2023-06-10T15:31:18;7.45;;;3.10;;
9974;SDS011;5028;50.974;4.968;2023-06-10T15:33:48;3.83;;;2.67;;
9974;SDS011;5028;50.974;4.968;2023-06-10T15:36:16;3.30;;;3.00;;
9974;SDS011;5028;50.974;4.968;2023-06-10T15:38:46;3.30;;;3.00;;